Flight Briefing for CPX312

Departure Arrival
Seattle-Tacoma International Airport (KSEA)
Click to view FAA NOTAMS
Washington Dulles International Airport (KIAD)
Click to view FAA NOTAMS
Departure Time Arrival Time
N/A N/A
Aircraft Distance
B767-300BDSF 20001nm
Departure METAR Arrival METAR
KSEA 230553Z 11004KT 10SM OVC120 19/11 A3003 RMK AO2 SLP174 T01890106 10239 20189 51015 KIAD 230552Z 17004KT 10SM FEW100 BKN250 16/09 A3020 RMK AO2 SLP226 T01610094 10194 20156 58012
Suggested Route
SEA NORMY J90 MWH HLN DPR MCW DBQ JOT J30 APE AIR J162 MGW GIBBZ2


View recent IFR Routes data
Notes



Charts and Procedures

Charts for KSEA
No chart available
Charts for KIAD
No chart available

Windy.com Weather Map